地図

経路データ

SID SEASON NUMBER BASIN SUBBASIN NAME ISO_TIME NATURE LAT LON WMO_WIND WMO_PRES WMO_AGENCY TRACK_TYPE DIST2LAND LANDFALL IFLAG USA_AGENCY USA_ATCF_ID USA_LAT USA_LON USA_RECORD USA_STATUS USA_WIND USA_PRES USA_SSHS USA_R34_NE USA_R34_SE USA_R34_SW USA_R34_NW USA_R50_NE USA_R50_SE USA_R50_SW USA_R50_NW USA_R64_NE USA_R64_SE USA_R64_SW USA_R64_NW USA_POCI USA_ROCI USA_RMW USA_EYE TOKYO_LAT TOKYO_LON TOKYO_GRADE TOKYO_WIND TOKYO_PRES TOKYO_R50_DIR TOKYO_R50_LONG TOKYO_R50_SHORT TOKYO_R30_DIR TOKYO_R30_LONG TOKYO_R30_SHORT TOKYO_LAND CMA_LAT CMA_LON CMA_CAT CMA_WIND CMA_PRES HKO_LAT HKO_LON HKO_CAT HKO_WIND HKO_PRES NEWDELHI_LAT NEWDELHI_LON NEWDELHI_GRADE NEWDELHI_WIND NEWDELHI_PRES NEWDELHI_CI NEWDELHI_DP NEWDELHI_POCI REUNION_LAT REUNION_LON REUNION_TYPE REUNION_WIND REUNION_PRES REUNION_TNUM REUNION_CI REUNION_RMW REUNION_R34_NE REUNION_R34_SE REUNION_R34_SW REUNION_R34_NW REUNION_R50_NE REUNION_R50_SE REUNION_R50_SW REUNION_R50_NW REUNION_R64_NE REUNION_R64_SE REUNION_R64_SW REUNION_R64_NW BOM_LAT BOM_LON BOM_TYPE BOM_WIND BOM_PRES BOM_TNUM BOM_CI BOM_RMW BOM_R34_NE BOM_R34_SE BOM_R34_SW BOM_R34_NW BOM_R50_NE BOM_R50_SE BOM_R50_SW BOM_R50_NW BOM_R64_NE BOM_R64_SE BOM_R64_SW BOM_R64_NW BOM_ROCI BOM_POCI BOM_EYE BOM_POS_METHOD BOM_PRES_METHOD NADI_LAT NADI_LON NADI_CAT NADI_WIND NADI_PRES WELLINGTON_LAT WELLINGTON_LON WELLINGTON_WIND WELLINGTON_PRES DS824_LAT DS824_LON DS824_STAGE DS824_WIND DS824_PRES TD9636_LAT TD9636_LON TD9636_STAGE TD9636_WIND TD9636_PRES TD9635_LAT TD9635_LON TD9635_WIND TD9635_PRES TD9635_ROCI NEUMANN_LAT NEUMANN_LON NEUMANN_CLASS NEUMANN_WIND NEUMANN_PRES MLC_LAT MLC_LON MLC_CLASS MLC_WIND MLC_PRES USA_GUST BOM_GUST BOM_GUST_PER REUNION_GUST REUNION_GUST_PER USA_SEAHGT USA_SEARAD_NE USA_SEARAD_SE USA_SEARAD_SW USA_SEARAD_NW STORM_SPEED STORM_DIR
1960077S15191 1960 13 SP MM NOT_NAMED 1960-03-17 00:00:00 TS -14.5000 -169.000 main 353 262 O________OO___ jtwc_sh SH181960 -14.5000 -169.000 -1 -14.5000 191.000 TC 35 -14.5000 -169.000 2 22 250
1960077S15191 1960 13 SP MM NOT_NAMED 1960-03-17 03:00:00 TS -14.8717 -170.074 main 257 201 P________PP___ SH181960 -14.8888 -170.109 -1 -14.8888 -170.109 TC 35 -14.8376 -170.003 2 21 251
1960077S15191 1960 13 SP MM NOT_NAMED 1960-03-17 06:00:00 TS -15.1760 -171.049 main 203 173 O________OP___ jtwc_sh SH181960 -15.2000 -171.100 -1 -15.2000 188.900 TC 35 -15.1280 -170.946 2 18 254
1960077S15191 1960 13 SP MM NOT_NAMED 1960-03-17 09:00:00 TS -15.3594 -171.836 main 184 179 P________PP___ SH181960 -15.3746 -171.870 -1 -15.3746 -171.870 TC 35 -15.3292 -171.767 2 13 260
1960077S15191 1960 13 SP MM NOT_NAMED 1960-03-17 12:00:00 TS -15.4000 -172.400 main 179 168 O________OO___ jtwc_sh SH181960 -15.4000 -172.400 -1 -15.4000 187.600 TC 35 -15.4000 -172.400 2 9 274
1960077S15191 1960 13 SP MM NOT_NAMED 1960-03-17 15:00:00 TS -15.2979 -172.765 main 169 149 P________PP___ SH181960 -15.2872 -172.748 -1 -15.2872 -172.748 TC 35 -15.3192 -172.799 2 6 299
1960077S15191 1960 13 SP MM NOT_NAMED 1960-03-17 18:00:00 TS -15.1142 -172.929 main 149 130 O________OP___ jtwc_sh SH181960 -15.1000 -172.900 -1 -15.1000 187.100 TC 35 -15.1426 -172.988 2 4 330
1960077S15191 1960 13 SP MM NOT_NAMED 1960-03-17 21:00:00 TS -14.9282 -172.991 main 130 116 P________PP___ SH181960 -14.9199 -172.982 -1 -14.9199 -172.982 TC 35 -14.9448 -173.008 2 3 7
1960077S15191 1960 13 SP MM NOT_NAMED 1960-03-18 00:00:00 TS -14.8000 -172.900 main 116 112 O________OO___ jtwc_sh SH181960 -14.8000 -172.900 -1 -14.8000 187.100 TC 35 -14.8000 -172.900 2 3 69
1960077S15191 1960 13 SP MM NOT_NAMED 1960-03-18 03:00:00 TS -14.8039 -172.658 main 112 111 P________PP___ SH181960 -14.8126 -172.638 -1 -14.8126 -172.638 TC 35 -14.7864 -172.699 2 6 98
1960077S15191 1960 13 SP MM NOT_NAMED 1960-03-18 06:00:00 TS -14.8794 -172.332 main 123 123 O________OP___ jtwc_sh SH181960 -14.9000 -172.300 -1 -14.9000 187.700 TC 35 -14.8382 -172.395 2 6 105
1960077S15191 1960 13 SP MM NOT_NAMED 1960-03-18 09:00:00 TS -14.9669 -172.036 main 136 136 P________PP___ SH181960 -14.9775 -172.020 -1 -14.9775 -172.020 TC 35 -14.9458 -172.068 2 6 113
1960077S15191 1960 13 SP MM NOT_NAMED 1960-03-18 12:00:00 TS -15.1000 -171.800 main 151 151 O________OO___ jtwc_sh SH181960 -15.1000 -171.800 -1 -15.1000 188.200 TC 35 -15.1000 -171.800 2 5 129
1960077S15191 1960 13 SP MM NOT_NAMED 1960-03-18 15:00:00 TS -15.2694 -171.655 main 176 176 P________PP___ SH181960 -15.2775 -171.655 -1 -15.2775 -171.655 TC 35 -15.2531 -171.655 2 4 153
1960077S15191 1960 13 SP MM NOT_NAMED 1960-03-18 18:00:00 TS -15.4840 -171.595 main 200 200 O________OP___ jtwc_sh SH181960 -15.5000 -171.600 -1 -15.5000 188.400 TC 35 -15.4521 -171.586 2 5 173
1960077S15191 1960 13 SP MM NOT_NAMED 1960-03-18 21:00:00 TS -15.7133 -171.603 main 222 222 P________PP___ SH181960 -15.7200 -171.605 -1 -15.7200 -171.605 TC 35 -15.7000 -171.599 2 5 191
1960077S15191 1960 13 SP MM NOT_NAMED 1960-03-19 00:00:00 TS -16.0000 -171.700 main 252 252 O________OO___ jtwc_sh SH181960 -16.0000 -171.700 -1 -16.0000 188.300 TC 35 -16.0000 -171.700 2 7 200
1960077S15191 1960 13 SP MM NOT_NAMED 1960-03-19 03:00:00 TS -16.3843 -171.851 main 292 292 P________PP___ SH181960 -16.3774 -171.855 -1 -16.3774 -171.855 TC 35 -16.3981 -171.843 2 9 205
1960077S15191 1960 13 SP MM NOT_NAMED 1960-03-19 06:00:00 TS -16.8123 -172.092 main 335 335 O________OP___ jtwc_sh SH181960 -16.8000 -172.100 -1 -16.8000 187.900 TC 35 -16.8369 -172.077 2 10 211
1960077S15191 1960 13 SP MM NOT_NAMED 1960-03-19 09:00:00 TS -17.2490 -172.397 main 380 380 P________PP___ SH181960 -17.2448 -172.397 -1 -17.2448 -172.397 TC 35 -17.2572 -172.396 2 10 221
1960077S15191 1960 13 SP MM NOT_NAMED 1960-03-19 12:00:00 TS -17.6000 -172.800 main 425 425 O________OO___ jtwc_sh SH181960 -17.6000 -172.800 -1 -17.6000 187.200 TC 35 -17.6000 -172.800 2 10 240
1960077S15191 1960 13 SP MM NOT_NAMED 1960-03-19 15:00:00 TS -17.7482 -173.308 main 442 442 P________PP___ SH181960 -17.7451 -173.320 -1 -17.7451 -173.320 TC 35 -17.7544 -173.284 2 11 258
1960077S15191 1960 13 SP MM NOT_NAMED 1960-03-19 18:00:00 TS -17.8103 -173.881 main 468 468 O________OP___ jtwc_sh SH181960 -17.8000 -173.900 -1 -17.8000 186.100 TC 35 -17.8309 -173.842 2 11 263
1960077S15191 1960 13 SP MM NOT_NAMED 1960-03-19 21:00:00 TS -17.8772 -174.448 main 497 497 P________PP___ SH181960 -17.8699 -174.458 -1 -17.8699 -174.458 TC 35 -17.8918 -174.428 2 11 260
1960077S15191 1960 13 SP MM NOT_NAMED 1960-03-20 00:00:00 TS -18.0000 -175.000 main 535 512 O________OO___ jtwc_sh SH181960 -18.0000 -175.000 -1 -18.0000 185.000 TC 35 -18.0000 -175.000 2 11 249
1960077S15191 1960 13 SP MM NOT_NAMED 1960-03-20 03:00:00 TS -18.2607 -175.523 main 515 474 P________PP___ SH181960 -18.2699 -175.515 -1 -18.2699 -175.515 TC 35 -18.2425 -175.540 2 11 239
1960077S15191 1960 13 SP MM NOT_NAMED 1960-03-20 06:00:00 TS -18.5801 -176.018 main 478 447 O________OP___ jtwc_sh SH181960 -18.6000 -176.000 -1 -18.6000 184.000 TC 35 -18.5402 -176.054 2 11 236
1960077S15191 1960 13 SP MM NOT_NAMED 1960-03-20 09:00:00 TS -18.8892 -176.497 main 447 432 P________PP___ SH181960 -18.9000 -176.488 -1 -18.9000 -176.488 TC 35 -18.8677 -176.515 2 10 233
1960077S15191 1960 13 SP MM NOT_NAMED 1960-03-20 12:00:00 TS -19.2000 -176.900 main 432 422 O________OO___ jtwc_sh SH181960 -19.2000 -176.900 -1 -19.2000 183.100 TC 35 -19.2000 -176.900 2 9 228
1960077S15191 1960 13 SP MM NOT_NAMED 1960-03-20 15:00:00 TS -19.4875 -177.197 main 430 430 P________PP___ SH181960 -19.4999 -177.195 -1 -19.4999 -177.195 TC 35 -19.4628 -177.200 2 8 220
1960077S15191 1960 13 SP MM NOT_NAMED 1960-03-20 18:00:00 TS -19.7773 -177.407 main 440 440 O________OP___ jtwc_sh SH181960 -19.8000 -177.400 -1 -19.8000 182.600 TC 35 -19.7318 -177.421 2 7 212
1960077S15191 1960 13 SP MM NOT_NAMED 1960-03-20 21:00:00 TS -20.0633 -177.576 main 448 448 P________PP___ SH181960 -20.0775 -177.573 -1 -20.0775 -177.573 TC 35 -20.0349 -177.581 2 7 204
1960077S15191 1960 13 SP MM NOT_NAMED 1960-03-21 00:00:00 TS -20.4000 -177.700 main 457 457 O________OO___ jtwc_sh SH181960 -20.4000 -177.700 -1 -20.4000 182.300 TC 35 -20.4000 -177.700 2 8 197
1960077S15191 1960 13 SP MM NOT_NAMED 1960-03-21 03:00:00 TS -20.8275 -177.818 main 475 475 P________PP___ SH181960 -20.8050 -177.815 -1 -20.8050 -177.815 TC 35 -20.8724 -177.823 2 10 191
1960077S15191 1960 13 SP MM NOT_NAMED 1960-03-21 06:00:00 TS -21.3350 -177.903 main 504 504 O________OP___ jtwc_sh SH181960 -21.3000 -177.900 -1 -21.3000 182.100 TC 35 -21.4049 -177.910 2 11 187
1960077S15191 1960 13 SP MM NOT_NAMED 1960-03-21 09:00:00 TS -21.9200 -177.961 main 547 547 P________PP___ SH181960 -21.9000 -177.958 -1 -21.9000 -177.958 TC 35 -21.9600 -177.967 2 12 184
1960077S15191 1960 13 SP MM NOT_NAMED 1960-03-21 12:00:00 TS -22.5000 -178.000 main 600 600 O________OO___ jtwc_sh SH181960 -22.5000 -178.000 -1 -22.5000 182.000 TC 35 -22.5000 -178.000 2 10 187
1960077S15191 1960 13 SP MM NOT_NAMED 1960-03-21 15:00:00 TS -22.9460 -178.096 main 631 631 P________PP___ SH181960 -22.9725 -178.065 -1 -22.9725 -178.065 TC 35 -22.8929 -178.158 2 9 190
1960077S15191 1960 13 SP MM NOT_NAMED 1960-03-21 18:00:00 TS -23.3591 -178.158 main 674 674 O________OP___ jtwc_sh SH181960 -23.4000 -178.100 -1 -23.4000 181.900 TC 35 -23.2772 -178.275 2 8 187
1960077S15191 1960 13 SP MM NOT_NAMED 1960-03-21 21:00:00 TS -23.7672 -178.197 main 713 713 P________PP___ SH181960 -23.7894 -178.168 -1 -23.7894 -178.168 TC 35 -23.7228 -178.255 2 10 171
1960077S15191 1960 13 SP MM NOT_NAMED 1960-03-22 00:00:00 TS -24.3000 -178.000 main 772 772 O________OO___ jtwc_sh SH181960 -24.3000 -178.000 -1 -24.3000 182.000 TC 35 -24.3000 -178.000 2 15 150
1960077S15191 1960 13 SP MM NOT_NAMED 1960-03-22 03:00:00 TS -25.0869 -177.377 main 880 880 P________PP___ SH181960 -25.0676 -177.392 -1 -25.0676 -177.392 TC 35 -25.1253 -177.346 2 22 141
1960077S15191 1960 13 SP MM NOT_NAMED 1960-03-22 06:00:00 TS -26.0248 -176.484 main 1011 1011 O________OP___ jtwc_sh SH181960 -26.0000 -176.500 -1 -26.0000 183.500 TC 35 -26.0745 -176.451 2 26 139
1960077S15191 1960 13 SP MM NOT_NAMED 1960-03-22 09:00:00 TS -27.0308 -175.476 main 1158 1158 P________PP___ SH181960 -27.0160 -175.487 -1 -27.0160 -175.487 TC 35 -27.0605 -175.454 2 27 138
1960077S15191 1960 13 SP MM NOT_NAMED 1960-03-22 12:00:00 TS -28.0000 -174.500 main 1257 1216 O________OO___ jtwc_sh SH181960 -28.0000 -174.500 -1 -28.0000 185.500 TC 35 -28.0000 -174.500 2 23 140
1960077S15191 1960 13 SP MM NOT_NAMED 1960-03-22 15:00:00 TS -28.8067 -173.760 main 1216 1186 P________PP___ SH181960 -28.7938 -173.787 -1 -28.7938 -173.787 TC 35 -28.8324 -173.705 2 19 142
1960077S15191 1960 13 SP MM NOT_NAMED 1960-03-22 18:00:00 TS -29.5241 -173.152 main 1186 1163 O________OP___ jtwc_sh SH181960 -29.5000 -173.200 -1 -29.5000 186.800 TC 35 -29.5724 -173.057 2 18 144
1960077S15191 1960 13 SP MM NOT_NAMED 1960-03-22 21:00:00 TS -30.2162 -172.575 main 1163 1146 P________PP___ SH181960 -30.1985 -172.610 -1 -30.1985 -172.610 TC 35 -30.2515 -172.506 2 17 144
1960077S15191 1960 13 SP MM NOT_NAMED 1960-03-23 00:00:00 TS -30.9000 -172.000 main 1146 O________OO___ jtwc_sh SH181960 -30.9000 -172.000 -1 -30.9000 188.000 TC 35 -30.9000 -172.000 2 17 144

デジタル台風データ・検索

IBTrACS Databaseについて

本データベースは、米国NOAAが公開する1842年以降の世界の熱帯低気圧のベストトラックデータアーカイブInternational Best Track Archive for Climate Stewardship (IBTrACS)を、ウェブで閲覧しやすい形式に変換したものです。

最終更新日:2021-12-01